Lenox, MA (01240)

8:52 AM EST on February 11, 2016 (GMT -0500)
Richmond | | Change Station
CLOSE
Current Station
Personal Weather Station
Location: Richmond, MA
Elevation: 1371 ft
Nearby Weather Stations

Elev 1371 ft 42.35 °N, 73.34 °W | Updated 8 seconds ago

Overcast
Overcast
15.8 °F
Feels Like 16 °F
N
0.0
Wind Variable Wind from ESE

Today
High -- | Low -- °F
--% Chance of Precip.
Yesterday
High -- | Low -- °F
Precip. -- in
Pressure 29.70 in
Visibility 7.0 miles
Clouds Mostly Cloudy 3400 ft
Overcast 4400 ft
Windchill 16 °F
Dew Point 7 °F
Humidity 69%
Rainfall 0.00 in
Snow Depth Not available.
6:55 AM 5:19 PM
Waxing Crescent, 12% visible
SPECI KPSF 111338Z AUTO 29008G18KT 7SM BKN034 OVC044 M09/M16 A2970 RMK AO2 SNE24 P0000 T10941156
Pressure 29.70 in
Visibility 7.0 miles
Clouds Mostly Cloudy 3400 ft
Overcast 4400 ft
Windchill 16 °F
Dew Point 7 °F
Humidity 69%
Rainfall 0.00 in
Snow Depth Not available.
6:55 AM 5:19 PM
Waxing Crescent, 12% visible
SPECI KPSF 111338Z AUTO 29008G18KT 7SM BKN034 OVC044 M09/M16 A2970 RMK AO2 SNE24 P0000 T10941156

10-Day Weather Forecast

Almanac

Astronomy

Feb. 11, 2016 Rise Set
Actual Time
Civil Twilight
Nautical Twilight
Astronomical Twilight
Moon
Length of Visible Light
Length of Day
Tomorrow will be .
, % of the Moon is Illuminated

Today's Extremes

State Highs State Lows

Community

WunderPhotos

Upload Photos

1,892,046 photos uploaded!

WunderBlog® & News

Nearby

Air Quality

  Air Quality AQ Index Pollutant
Not available.

Snow Depth

Station Depth Elevation

Earthquake Activity

City Distance Mag. Time & Date
Minimum magnitude displayed is 2.5.

Coastal Water Temperatures

Place Temperature

Stations

Nearby Weather Stations

Station Location Temp. Windchill Dew Point Humidity Wind Precip. Elev Updated Type
                   

Watches & Warnings

There are currently no watches in effect.